Athens, Greece
Current Conditions -  °F | °C
As of 12:50 AM on Tuesday 23 Dec 2014 (Local Time) from LGEL Reporting Station
Few Clouds Few Clouds  
Wind Chill: 36°   Ceiling: Unl
Heat Index: 39°   Visibility: 6mi
Dew Point: 32°   Wind: 5mph
Humidity: 75%   Direction: 350°N
Pressure: 30.33"   Gusts: NA
Location:  37.98°N, 23.73°E
Report Text: LGEL 222150Z 35004KT 9999 FEW025 04/M00 Q1027
Loading
Personal Weather Stations






























Interactive Weather Map New forecast layout! Learn more

10-Day Weather Forecast

Advertisements
Track Severe Weather on mobile